Tuesday, January 22, 2019, 4:24 PM EST
Back to Local

KIZG, Fryeburg Eastern Slopes Rgnl

Location: Fryeburg, ME, United States Lat: 43.983
Local Time: 4:24 PM EST (21:24 GMT) Lon: -70.95
Time Zone: US/Eastern Elev: 452 ft

Show me the last for .
Show Decoded

2019-01-22 15:54 METAR KIZG 222054Z AUTO 10004KT 10SM CLR M08/M22 A3045 RMK AO2 SLP324 T10781217
                 53020 =
2019-01-22 14:54 METAR KIZG 221954Z AUTO 11004KT 10SM CLR M07/M21 A3042 RMK AO2 SLP313 T10721211
                 =
2019-01-22 13:54 METAR KIZG 221854Z AUTO 07006KT 10SM CLR M07/M23 A3041 RMK AO2 SLP308 T10721228
                 =
2019-01-22 12:54 METAR KIZG 221754Z AUTO 00000KT 10SM CLR M07/M26 A3039 RMK AO2 SLP302 T10671261
                 11067 21250 51007 =
2019-01-22 11:54 METAR KIZG 221654Z AUTO 09004KT 10SM CLR M08/M25 A3038 RMK AO2 SLP298 T10831250
                 =
2019-01-22 10:54 METAR KIZG 221554Z AUTO 12004KT 10SM CLR M09/M26 A3040 RMK AO2 SLP306 T10941256
                 =
2019-01-22 09:54 METAR KIZG 221454Z AUTO 11003KT 10SM CLR M12/M24 A3037 RMK AO2 SLP296 T11171244
                 51040 =
2019-01-22 08:54 METAR KIZG 221354Z AUTO 15004KT 10SM CLR M15/M25 A3034 RMK AO2 SLP289 T11501250
                 =
2019-01-22 07:54 METAR KIZG 221254Z AUTO 00000KT 10SM CLR M21/M26 A3031 RMK AO2 SLP277 T12061261
                 =
2019-01-22 06:54 METAR KIZG 221154Z AUTO 25004KT 10SM CLR M25/M28 A3025 RMK AO2 SLP259 T12501278
                 11161 21250 51036 $ =
2019-01-22 05:54 METAR KIZG 221054Z AUTO 00000KT 10SM CLR M23/M27 A3022 RMK AO2 SLP249 T12331272
                 $ =
2019-01-22 04:54 METAR KIZG 220954Z AUTO 00000KT 10SM CLR M22/M27 A3018 RMK AO2 SLP234 T12171267
                 $ =
2019-01-22 03:54 METAR KIZG 220854Z AUTO 23004KT 10SM CLR M19/M26 A3014 RMK AO2 SLP221 T11941261
                 51038 $ =
2019-01-22 02:54 METAR KIZG 220754Z AUTO 02004KT 10SM CLR M18/M27 A3013 RMK AO2 SLP215 T11831267
                 $ =
2019-01-22 01:54 METAR KIZG 220654Z AUTO VRB04KT 10SM CLR M16/M26 A3008 RMK AO2 SLP198 T11611261
                 $ =
2019-01-22 00:54 METAR KIZG 220554Z AUTO 26006G14KT 10SM CLR M16/M26 A3003 RMK AO2 SLP181
                 T11611256 11161 21178 53030 $ =
2019-01-21 23:54 METAR KIZG 220454Z AUTO 29006KT 10SM OVC110 M16/M24 A2999 RMK AO2 SLP169
                 T11611244 411441183 $ =
2019-01-21 22:54 METAR KIZG 220354Z AUTO 27009G16KT 220V290 10SM CLR M16/M24 A2996 RMK AO2 SLP159
                 T11611244 $ =
2019-01-21 21:54 METAR KIZG 220254Z AUTO 27008G16KT 230V300 10SM OVC100 M16/M24 A2994 RMK AO2
                 SLP151 T11611239 51018 $ =
2019-01-21 20:54 METAR KIZG 220154Z AUTO 30005KT 10SM OVC090 M17/M23 A2992 RMK AO2 SLP145
                 T11721228 $ =
2019-01-21 19:54 METAR KIZG 220054Z AUTO 29004KT 10SM OVC080 M17/M24 A2991 RMK AO2 SLP140
                 T11721239 $ =
2019-01-21 18:54 METAR KIZG 212354Z AUTO VRB04KT 10SM OVC055 M18/M25 A2989 RMK AO2 SLP133 60000
                 T11781250 11150 21183 51036 $ =
2019-01-21 17:54 METAR KIZG 212254Z AUTO 00000KT 10SM OVC100 M18/M24 A2986 RMK AO2 SLP125
                 T11831244 $ =
2019-01-21 16:54 METAR KIZG 212154Z AUTO VRB04KT 9SM FEW055 OVC100 M18/M25 A2983 RMK AO2 SLP113
                 T11831250 $ =

Support USWX by starting your Amazon purchase here.